createdAt,value
2017-06-10T00:01:14.863Z,73.60
2017-06-10T00:03:42.505Z,73.80
2017-06-10T00:06:10.859Z,74.00
2017-06-10T00:08:38.402Z,73.80
2017-06-10T00:11:11.602Z,73.90
2017-06-10T00:13:39.145Z,74.00
2017-06-10T00:16:07.070Z,74.00
2017-06-10T00:18:34.649Z,73.90
2017-06-10T00:21:02.194Z,74.00
2017-06-10T00:23:29.791Z,73.90
2017-06-10T00:25:57.358Z,73.90
2017-06-10T00:28:25.089Z,73.80
2017-06-10T00:30:52.862Z,74.00
2017-06-10T00:33:20.402Z,74.10
2017-06-10T00:35:48.005Z,74.20
2017-06-10T00:38:15.563Z,74.20
2017-06-10T00:40:43.426Z,74.20
2017-06-10T00:43:10.983Z,74.20
2017-06-10T00:45:38.525Z,74.30
2017-06-10T00:48:11.362Z,74.30
2017-06-10T00:50:38.902Z,74.20
2017-06-10T00:53:06.485Z,75.00
2017-06-10T00:55:34.029Z,74.30
2017-06-10T00:58:01.635Z,74.40
2017-06-10T01:00:29.178Z,74.30
2017-06-10T01:02:57.570Z,74.60
2017-06-10T01:05:26.352Z,74.60
2017-06-10T01:07:54.662Z,74.50
2017-06-10T01:10:22.206Z,74.40
2017-06-10T01:12:49.794Z,74.50
2017-06-10T01:15:17.870Z,74.50
2017-06-10T01:17:45.559Z,74.50
2017-06-10T01:20:13.098Z,74.50
2017-06-10T01:22:40.686Z,74.60
2017-06-10T01:25:08.238Z,74.50
2017-06-10T01:27:35.819Z,74.60
2017-06-10T01:30:03.356Z,74.70
2017-06-10T01:32:35.826Z,74.70
2017-06-10T01:35:03.375Z,74.80
2017-06-10T01:37:30.958Z,74.90
2017-06-10T01:39:58.507Z,74.90
2017-06-10T01:42:26.086Z,75.00
2017-06-10T01:44:53.634Z,75.00
2017-06-10T01:47:21.699Z,75.00
2017-06-10T01:49:49.244Z,75.00
2017-06-10T01:52:16.800Z,74.90
2017-06-10T01:54:44.386Z,74.90
2017-06-10T01:57:12.306Z,74.80
2017-06-10T01:59:39.894Z,74.80
2017-06-10T02:02:07.441Z,74.80
2017-06-10T02:04:35.642Z,74.80
2017-06-10T02:07:03.186Z,74.80
2017-06-10T02:09:30.730Z,74.80
2017-06-10T02:11:58.441Z,74.90
2017-06-10T02:14:26.398Z,74.80
2017-06-10T02:16:53.938Z,74.80
2017-06-10T02:19:21.493Z,74.90
2017-06-10T02:21:49.584Z,74.80
2017-06-10T02:24:17.209Z,74.80
2017-06-10T02:26:44.844Z,74.90
2017-06-10T02:29:12.482Z,74.90
2017-06-10T02:31:40.129Z,74.80
2017-06-10T02:34:08.877Z,74.80
2017-06-10T02:36:36.475Z,74.90
2017-06-10T02:39:04.097Z,74.90
2017-06-10T02:41:32.086Z,74.90
2017-06-10T02:43:59.725Z,74.90
2017-06-10T02:46:27.325Z,74.90
2017-06-10T02:48:55.008Z,74.70
2017-06-10T02:51:22.692Z,74.70
2017-06-10T02:53:51.056Z,75.00
2017-06-10T02:56:19.276Z,74.90
2017-06-10T02:58:47.401Z,75.10
2017-06-10T03:01:14.994Z,75.10
2017-06-10T03:03:43.409Z,75.00
2017-06-10T03:06:13.260Z,75.00
2017-06-10T03:08:40.896Z,75.00
2017-06-10T03:11:08.480Z,74.90
2017-06-10T03:13:36.491Z,74.90
2017-06-10T03:16:04.129Z,75.00
2017-06-10T03:18:32.629Z,75.00
2017-06-10T03:21:00.980Z,76.10
2017-06-10T03:23:28.610Z,76.00
2017-06-10T03:25:56.197Z,75.00
2017-06-10T03:28:24.517Z,76.00
2017-06-10T03:30:52.100Z,76.00
2017-06-10T03:33:19.684Z,76.00
2017-06-10T03:35:47.309Z,76.00
2017-06-10T03:38:14.940Z,76.20
2017-06-10T03:40:43.389Z,76.30
2017-06-10T03:43:11.003Z,76.20
2017-06-10T03:45:43.980Z,76.30
2017-06-10T03:48:12.324Z,76.40
2017-06-10T03:50:39.908Z,76.30
2017-06-10T03:53:07.580Z,76.40
2017-06-10T03:55:35.937Z,76.40
2017-06-10T03:58:03.552Z,76.40
2017-06-10T04:00:31.133Z,76.40
2017-06-10T04:02:58.974Z,76.40
2017-06-10T04:05:26.557Z,76.50
2017-06-10T04:07:54.152Z,76.50
2017-06-10T04:10:21.788Z,76.40
2017-06-10T04:12:49.374Z,76.40
2017-06-10T04:15:17.285Z,75.40
2017-06-10T04:17:44.882Z,75.40
2017-06-10T04:20:12.760Z,75.50
2017-06-10T04:22:40.732Z,75.60
2017-06-10T04:25:08.366Z,75.60
2017-06-10T04:27:40.913Z,75.70
2017-06-10T04:30:08.509Z,75.70
2017-06-10T04:32:36.244Z,75.80
2017-06-10T04:35:03.852Z,75.90
2017-06-10T04:37:31.441Z,75.90
2017-06-10T04:39:59.457Z,75.90
2017-06-10T04:42:27.053Z,75.90
2017-06-10T04:44:54.691Z,75.90
2017-06-10T04:47:22.716Z,76.00
2017-06-10T04:49:50.353Z,76.00
2017-06-10T04:52:18.024Z,76.00
2017-06-10T04:54:57.513Z,76.10
2017-06-10T04:57:25.107Z,76.10
2017-06-10T04:59:53.084Z,76.00
2017-06-10T05:02:20.728Z,76.20
2017-06-10T05:04:48.375Z,76.20
2017-06-10T05:07:16.500Z,76.20
2017-06-10T05:09:44.334Z,76.30
2017-06-10T05:12:11.941Z,76.40
2017-06-10T05:14:40.728Z,76.60
2017-06-10T05:17:09.085Z,76.70
2017-06-10T05:19:36.832Z,76.60
2017-06-10T05:22:04.846Z,76.70
2017-06-10T05:24:32.435Z,76.80
2017-06-10T05:27:00.028Z,76.80
2017-06-10T05:29:27.921Z,76.70
2017-06-10T05:31:55.564Z,76.80
2017-06-10T05:34:23.169Z,76.90
2017-06-10T05:36:50.907Z,76.80
2017-06-10T05:39:19.294Z,77.00
2017-06-10T05:41:48.181Z,77.10
2017-06-10T05:44:16.610Z,76.90
2017-06-10T05:46:44.200Z,76.90
2017-06-10T05:49:11.824Z,77.00
2017-06-10T05:51:39.464Z,77.10
2017-06-10T05:54:07.528Z,77.30
2017-06-10T05:56:35.884Z,77.40
2017-06-10T05:59:03.476Z,77.30
2017-06-10T06:01:31.197Z,77.40
2017-06-10T06:03:58.796Z,77.40
2017-06-10T06:06:26.385Z,77.30
2017-06-10T06:08:54.424Z,77.00
2017-06-10T06:11:22.785Z,76.40
2017-06-10T06:13:50.384Z,76.30
2017-06-10T06:16:18.052Z,76.30
2017-06-10T06:18:51.290Z,76.40
2017-06-10T06:21:18.881Z,76.40
2017-06-10T06:23:47.626Z,76.50
2017-06-10T06:26:15.234Z,76.40
2017-06-10T06:28:43.628Z,76.30
2017-06-10T06:31:11.279Z,76.20
2017-06-10T06:33:38.978Z,76.20
2017-06-10T06:36:06.573Z,76.20
2017-06-10T06:38:34.212Z,76.20
2017-06-10T06:41:01.814Z,76.00
2017-06-10T06:43:34.908Z,76.00
2017-06-10T06:46:02.544Z,75.50
2017-06-10T06:48:30.141Z,75.00
2017-06-10T06:50:57.874Z,74.60
2017-06-10T06:53:25.500Z,74.20
2017-06-10T06:55:53.090Z,73.70
2017-06-10T06:58:20.779Z,73.60
2017-06-10T07:00:48.402Z,73.30
2017-06-10T07:03:16.052Z,73.60
2017-06-10T07:05:43.636Z,72.60
2017-06-10T07:08:11.605Z,72.00
2017-06-10T07:10:39.197Z,71.50
2017-06-10T07:13:07.556Z,71.00
2017-06-10T07:15:35.551Z,70.90
2017-06-10T07:18:03.229Z,70.70
2017-06-10T07:20:31.216Z,70.50
2017-06-10T07:22:58.900Z,69.90
2017-06-10T07:25:26.496Z,69.50
2017-06-10T07:27:54.852Z,68.60
2017-06-10T07:30:22.731Z,68.50
2017-06-10T07:32:50.322Z,68.30
2017-06-10T07:35:17.925Z,67.90
2017-06-10T07:37:45.607Z,67.40
2017-06-10T07:40:13.199Z,66.90
2017-06-10T07:42:41.637Z,66.30
2017-06-10T07:45:09.749Z,66.20
2017-06-10T07:47:38.116Z,65.60
2017-06-10T07:50:06.465Z,65.80
2017-06-10T07:52:34.455Z,65.30
2017-06-10T07:55:02.871Z,64.70
2017-06-10T07:57:30.467Z,64.60
2017-06-10T07:59:58.472Z,64.20
2017-06-10T08:02:26.889Z,63.60
2017-06-10T08:04:54.476Z,63.40
2017-06-10T08:07:22.171Z,62.90
2017-06-10T08:09:50.552Z,62.60
2017-06-10T08:12:18.264Z,62.30
2017-06-10T08:14:45.853Z,61.90
2017-06-10T08:17:13.608Z,61.70
2017-06-10T08:19:41.243Z,61.30
2017-06-10T08:22:09.153Z,60.80
2017-06-10T08:24:37.097Z,60.40
2017-06-10T08:27:04.758Z,59.50
2017-06-10T08:29:32.435Z,59.00
2017-06-10T08:32:00.031Z,58.50
2017-06-10T08:34:27.628Z,58.30
2017-06-10T08:36:55.253Z,57.90
2017-06-10T08:39:22.906Z,57.40
2017-06-10T08:41:50.679Z,56.90
2017-06-10T08:44:18.616Z,56.70
2017-06-10T08:46:46.201Z,56.70
2017-06-10T08:49:13.789Z,56.60
2017-06-10T08:51:42.180Z,55.60
2017-06-10T08:54:09.817Z,55.50
2017-06-10T08:56:41.128Z,55.50
2017-06-10T08:59:08.871Z,55.40
2017-06-10T09:01:36.526Z,55.30
2017-06-10T09:04:08.528Z,55.00
2017-06-10T09:06:36.403Z,54.70
2017-06-10T09:09:04.402Z,54.40
2017-06-10T09:11:31.996Z,53.90
2017-06-10T09:13:59.661Z,53.50
2017-06-10T09:16:27.505Z,53.30
2017-06-10T09:18:55.096Z,53.10
2017-06-10T09:21:23.048Z,52.90
2017-06-10T09:23:50.645Z,52.10
2017-06-10T09:26:18.234Z,51.80
2017-06-10T09:28:46.689Z,51.70
2017-06-10T09:31:14.276Z,51.60
2017-06-10T09:33:42.725Z,50.50
2017-06-10T09:36:10.377Z,50.90
2017-06-10T09:38:38.021Z,50.90
2017-06-10T09:41:05.620Z,50.70
2017-06-10T09:43:33.476Z,50.40
2017-06-10T09:46:01.079Z,50.30
2017-06-10T09:48:29.494Z,50.00
2017-06-10T09:50:57.296Z,49.90
2017-06-10T09:53:24.924Z,49.20
2017-06-10T09:55:52.696Z,49.50
2017-06-10T09:58:20.336Z,49.20
2017-06-10T10:00:47.934Z,48.70
2017-06-10T10:03:15.572Z,48.80
2017-06-10T10:05:43.185Z,48.60
2017-06-10T10:08:11.025Z,48.40
2017-06-10T10:10:38.629Z,48.70
2017-06-10T10:15:54.009Z,47.70
2017-06-10T10:18:23.312Z,47.10
2017-06-10T10:20:51.928Z,47.10
2017-06-10T10:23:36.384Z,47.40
2017-06-10T10:26:07.334Z,46.70
2017-06-10T10:28:39.092Z,46.70
2017-06-10T10:31:14.973Z,46.30
2017-06-10T10:34:07.176Z,46.10
2017-06-10T10:39:30.341Z,46.00
2017-06-10T10:54:09.350Z,45.80
2017-06-10T10:56:36.945Z,45.80
2017-06-10T10:59:05.049Z,45.70
2017-06-10T11:01:33.218Z,45.50
2017-06-10T11:04:00.760Z,45.20
2017-06-10T11:06:28.344Z,45.20
2017-06-10T11:08:56.519Z,44.90
2017-06-10T11:11:24.153Z,44.60
2017-06-10T11:13:51.761Z,44.00
2017-06-10T11:16:20.891Z,44.40
2017-06-10T11:18:48.490Z,44.30
2017-06-10T11:21:16.097Z,44.00
2017-06-10T11:23:43.889Z,44.50
2017-06-10T11:26:11.488Z,44.10
2017-06-10T11:28:39.082Z,44.30
2017-06-10T11:31:07.256Z,44.40
2017-06-10T11:33:35.609Z,45.20
2017-06-10T11:36:03.204Z,45.10
2017-06-10T11:38:31.018Z,45.00
2017-06-10T11:40:59.033Z,44.80
2017-06-10T11:43:27.384Z,44.80
2017-06-10T11:45:55.128Z,44.60
2017-06-10T11:48:23.352Z,45.20
2017-06-10T11:50:51.712Z,45.60
2017-06-10T11:53:20.486Z,45.50
2017-06-10T11:55:48.259Z,45.50
2017-06-10T11:58:15.863Z,45.40
2017-06-10T12:00:43.619Z,45.20
2017-06-10T12:03:11.288Z,45.40
2017-06-10T12:05:38.889Z,45.60
2017-06-10T12:08:11.933Z,45.50
2017-06-10T12:10:39.502Z,45.40
2017-06-10T12:13:07.086Z,45.20
2017-06-10T12:15:35.193Z,45.00
2017-06-10T12:18:02.773Z,45.60
2017-06-10T12:20:30.372Z,46.00
2017-06-10T12:22:57.981Z,45.60
2017-06-10T12:25:25.570Z,45.90
2017-06-10T12:27:53.163Z,46.20
2017-06-10T12:30:21.358Z,46.10
2017-06-10T12:32:48.944Z,46.40
2017-06-10T12:35:16.501Z,45.10
2017-06-10T12:37:44.594Z,45.20
2017-06-10T12:40:12.184Z,45.00
2017-06-10T12:42:39.731Z,45.10
2017-06-10T12:45:07.666Z,45.00
2017-06-10T12:47:36.031Z,45.00
2017-06-10T12:50:04.981Z,45.40
2017-06-10T12:52:33.434Z,44.70
2017-06-10T12:55:01.838Z,44.10
2017-06-10T12:57:29.529Z,44.00
2017-06-10T12:59:57.398Z,43.50
2017-06-10T13:02:25.585Z,43.90
2017-06-10T13:04:53.124Z,44.30
2017-06-10T13:07:20.720Z,44.20
2017-06-10T13:09:49.141Z,44.00
2017-06-10T13:12:16.687Z,44.00
2017-06-10T13:14:45.051Z,43.80
2017-06-10T13:17:12.852Z,43.80
2017-06-10T13:19:40.761Z,44.30
2017-06-10T13:22:09.999Z,44.10
2017-06-10T13:24:37.554Z,44.10
2017-06-10T13:27:05.148Z,43.80
2017-06-10T13:29:33.393Z,43.70
2017-06-10T13:32:00.985Z,43.90
2017-06-10T13:34:28.537Z,43.70
2017-06-10T13:36:56.134Z,43.50
2017-06-10T13:39:23.718Z,43.90
2017-06-10T13:41:51.426Z,44.00
2017-06-10T13:44:18.989Z,44.40
2017-06-10T13:46:46.932Z,43.80
2017-06-10T13:49:14.489Z,43.20
2017-06-10T13:51:42.078Z,43.10
2017-06-10T13:54:13.638Z,43.00
2017-06-10T13:56:41.243Z,42.50
2017-06-10T13:59:08.872Z,42.60
2017-06-10T14:01:36.641Z,42.70
2017-06-10T14:04:04.286Z,42.50
2017-06-10T14:06:31.839Z,42.40
2017-06-10T14:08:59.424Z,42.40
2017-06-10T14:11:27.408Z,42.20
2017-06-10T14:13:55.001Z,41.90
2017-06-10T14:16:23.379Z,41.10
2017-06-10T14:18:51.789Z,40.90
2017-06-10T14:21:20.072Z,40.80
2017-06-10T14:23:47.621Z,41.10
2017-06-10T14:26:15.526Z,40.60
2017-06-10T14:28:43.112Z,40.30
2017-06-10T14:31:10.715Z,40.00
2017-06-10T14:33:39.390Z,39.60
2017-06-10T14:36:06.984Z,39.30
2017-06-10T14:38:34.570Z,39.10
2017-06-10T14:41:02.213Z,39.30
2017-06-10T14:43:29.992Z,39.60
2017-06-10T14:45:58.793Z,39.20
2017-06-10T14:48:26.388Z,39.10
2017-06-10T14:50:54.077Z,38.70
2017-06-10T14:53:21.673Z,38.10
2017-06-10T14:55:49.272Z,38.10
2017-06-10T14:58:16.988Z,38.00
2017-06-10T15:00:44.666Z,38.00
2017-06-10T15:03:13.788Z,37.20
2017-06-10T15:05:41.378Z,37.10
2017-06-10T15:08:08.966Z,36.70
2017-06-10T15:10:36.573Z,36.30
2017-06-10T15:13:05.013Z,36.20
2017-06-10T15:15:33.020Z,36.20
2017-06-10T15:18:01.371Z,36.00
2017-06-10T15:20:28.962Z,36.00
2017-06-10T15:22:58.165Z,35.90
2017-06-10T15:25:25.784Z,35.90
2017-06-10T15:27:53.320Z,35.60
2017-06-10T15:30:20.937Z,36.20
2017-06-10T15:32:49.298Z,37.10
2017-06-10T15:35:16.893Z,37.00
2017-06-10T15:37:44.755Z,36.90
2017-06-10T15:40:13.110Z,36.80
2017-06-10T15:42:40.804Z,36.80
2017-06-10T15:45:08.440Z,36.60
2017-06-10T15:47:36.845Z,35.60
2017-06-10T15:50:04.451Z,36.10
2017-06-10T15:52:32.101Z,35.70
2017-06-10T15:54:59.688Z,35.50
2017-06-10T15:57:32.621Z,35.30
2017-06-10T16:00:00.207Z,35.40
2017-06-10T16:02:27.797Z,35.30
2017-06-10T16:04:56.457Z,34.90
2017-06-10T16:07:24.092Z,34.60
2017-06-10T16:09:51.681Z,34.70
2017-06-10T16:12:23.418Z,34.60
2017-06-10T16:14:51.012Z,34.60
2017-06-10T16:17:20.364Z,34.40
2017-06-10T16:19:48.089Z,34.30
2017-06-10T16:22:15.803Z,35.00
2017-06-10T16:24:47.406Z,34.00
2017-06-10T16:27:15.668Z,33.70
2017-06-10T16:29:44.001Z,33.10
2017-06-10T16:32:11.550Z,33.00
2017-06-10T16:34:39.430Z,32.90
2017-06-10T16:37:07.160Z,32.70
2017-06-10T16:39:34.710Z,32.50
2017-06-10T16:42:02.343Z,32.50
2017-06-10T16:44:30.761Z,32.50
2017-06-10T16:46:58.370Z,32.50
2017-06-10T16:49:26.522Z,32.20
2017-06-10T16:51:54.122Z,32.00
2017-06-10T16:54:21.749Z,31.50
2017-06-10T16:56:49.426Z,31.20
2017-06-10T16:59:16.990Z,30.80
2017-06-10T17:01:44.610Z,30.70
2017-06-10T17:04:13.180Z,29.80
2017-06-10T17:06:41.084Z,29.70
2017-06-10T17:09:08.705Z,29.90
2017-06-10T17:11:36.331Z,30.50
2017-06-10T17:14:03.992Z,31.40
2017-06-10T17:16:31.600Z,32.30
2017-06-10T17:19:02.190Z,32.80
2017-06-10T17:21:32.465Z,33.40
2017-06-10T17:24:07.943Z,34.10
2017-06-10T17:26:42.852Z,34.40
2017-06-10T17:29:15.343Z,34.80
2017-06-10T17:31:46.105Z,35.00
2017-06-10T17:34:18.341Z,35.40
2017-06-10T17:36:50.729Z,35.40
2017-06-10T17:39:19.798Z,36.10
2017-06-10T17:41:48.320Z,37.50
2017-06-10T17:44:17.145Z,37.40
2017-06-10T17:46:44.793Z,37.90
2017-06-10T17:49:12.745Z,38.30
2017-06-10T17:51:40.336Z,38.50
2017-06-10T17:54:07.926Z,38.30
2017-06-10T17:56:36.046Z,39.20
2017-06-10T17:59:03.642Z,39.90
2017-06-10T18:01:31.281Z,40.20
2017-06-10T18:04:00.139Z,41.00
2017-06-10T18:06:27.728Z,41.00
2017-06-10T18:08:55.362Z,41.10
2017-06-10T18:11:23.805Z,41.80
2017-06-10T18:13:51.397Z,41.70
2017-06-10T18:16:18.984Z,41.80
2017-06-10T18:18:47.395Z,41.50
2017-06-10T18:21:15.961Z,42.10
2017-06-10T18:23:48.725Z,43.10
2017-06-10T18:26:17.912Z,43.10
2017-06-10T18:28:45.572Z,43.50
2017-06-10T18:31:13.165Z,43.90
2017-06-10T18:33:40.956Z,44.10
2017-06-10T18:36:08.566Z,44.10
2017-06-10T18:38:36.228Z,44.40
2017-06-10T18:41:05.213Z,44.50
2017-06-10T18:43:33.289Z,44.70
2017-06-10T18:46:00.868Z,44.90
2017-06-10T18:48:28.462Z,45.10
2017-06-10T18:50:56.585Z,45.30
2017-06-10T18:53:24.170Z,45.60
2017-06-10T18:55:52.537Z,46.10
2017-06-10T18:58:20.279Z,46.00
2017-06-10T19:00:47.877Z,46.10
2017-06-10T19:03:16.333Z,46.70
2017-06-10T19:05:46.900Z,46.60
2017-06-10T19:08:14.614Z,46.70
2017-06-10T19:10:42.236Z,46.60
2017-06-10T19:13:09.858Z,46.60
2017-06-10T19:15:38.173Z,46.70
2017-06-10T19:18:05.856Z,46.80
2017-06-10T19:20:33.465Z,47.30
2017-06-10T19:23:02.410Z,48.30
2017-06-10T19:25:29.979Z,48.20
2017-06-10T19:27:57.597Z,48.40
2017-06-10T19:30:26.081Z,49.20
2017-06-10T19:32:54.436Z,49.30
2017-06-10T19:35:22.033Z,49.20
2017-06-10T19:37:50.093Z,49.50
2017-06-10T19:40:18.433Z,50.00
2017-06-10T19:42:46.097Z,50.00
2017-06-10T19:45:13.776Z,50.10
2017-06-10T19:47:41.428Z,50.30
2017-06-10T19:50:09.018Z,50.60
2017-06-10T19:52:38.073Z,51.10
2017-06-10T19:55:05.711Z,51.10
2017-06-10T19:57:33.323Z,51.50
2017-06-10T20:00:02.321Z,52.70
2017-06-10T20:02:30.701Z,52.30
2017-06-10T20:04:59.081Z,52.30
2017-06-10T20:07:27.858Z,52.70
2017-06-10T20:09:56.396Z,52.70
2017-06-10T20:12:23.998Z,53.00
2017-06-10T20:14:51.720Z,53.30
2017-06-10T20:17:19.325Z,53.60
2017-06-10T20:19:47.741Z,54.10
2017-06-10T20:22:15.362Z,54.10
2017-06-10T20:24:43.397Z,54.90
2017-06-10T20:27:10.954Z,54.40
2017-06-10T20:29:38.555Z,54.60
2017-06-10T20:32:06.607Z,54.70
2017-06-10T20:34:34.256Z,55.10
2017-06-10T20:37:01.908Z,55.40
2017-06-10T20:39:29.968Z,55.70
2017-06-10T20:41:57.610Z,56.00
2017-06-10T20:44:26.017Z,56.40
2017-06-10T20:46:53.637Z,56.30
2017-06-10T20:49:21.704Z,56.50
2017-06-10T20:51:49.305Z,56.70
2017-06-10T20:54:17.984Z,57.10
2017-06-10T20:56:46.083Z,57.40
2017-06-10T20:59:13.657Z,57.70
2017-06-10T21:01:41.482Z,58.00
2017-06-10T21:04:09.224Z,58.10
2017-06-10T21:06:36.889Z,58.40
2017-06-10T21:09:04.513Z,58.50
2017-06-10T21:11:32.205Z,58.60
2017-06-10T21:13:59.861Z,58.80
2017-06-10T21:16:27.488Z,58.80
2017-06-10T21:18:56.726Z,59.00
2017-06-10T21:21:24.337Z,59.10
2017-06-10T21:23:52.297Z,59.30
2017-06-10T21:26:19.997Z,59.50
2017-06-10T21:28:47.609Z,59.70
2017-06-10T21:31:15.211Z,59.80
2017-06-10T21:33:42.804Z,60.10
2017-06-10T21:36:10.910Z,60.30
2017-06-10T21:38:38.467Z,60.70
2017-06-10T21:41:06.825Z,60.90
2017-06-10T21:43:34.558Z,60.90
2017-06-10T21:46:02.145Z,61.20
2017-06-10T21:48:29.903Z,61.20
2017-06-10T21:50:57.514Z,61.30
2017-06-10T21:53:25.110Z,61.50
2017-06-10T21:55:52.865Z,61.50
2017-06-10T21:58:20.458Z,61.60
2017-06-10T22:00:48.106Z,61.70
2017-06-10T22:03:15.707Z,61.80
2017-06-10T22:05:43.468Z,61.80
2017-06-10T22:08:11.067Z,62.00
2017-06-10T22:10:38.662Z,62.10
2017-06-10T22:13:06.397Z,62.20
2017-06-10T22:15:33.993Z,62.40
2017-06-10T22:18:02.045Z,62.50
2017-06-10T22:20:31.157Z,62.60
2017-06-10T22:22:58.750Z,62.60
2017-06-10T22:25:26.825Z,62.80
2017-06-10T22:27:54.468Z,62.90
2017-06-10T22:30:22.173Z,62.90
2017-06-10T22:32:49.763Z,63.10
2017-06-10T22:35:17.425Z,63.20
2017-06-10T22:37:45.021Z,63.20
2017-06-10T22:40:12.574Z,63.40
2017-06-10T22:42:40.226Z,63.40
2017-06-10T22:45:07.829Z,63.60
2017-06-10T22:47:39.377Z,63.60
2017-06-10T22:50:06.985Z,63.80
2017-06-10T22:52:34.537Z,63.90
2017-06-10T22:55:02.126Z,64.00
2017-06-10T22:57:29.713Z,64.00
2017-06-10T22:59:57.326Z,64.10
2017-06-10T23:02:24.913Z,64.20
2017-06-10T23:04:52.509Z,64.30
2017-06-10T23:07:22.626Z,64.40
2017-06-10T23:09:50.227Z,64.60
2017-06-10T23:12:17.817Z,64.50
2017-06-10T23:14:45.514Z,64.70
2017-06-10T23:17:13.106Z,64.80
2017-06-10T23:19:40.698Z,64.90
2017-06-10T23:22:08.414Z,64.90
2017-06-10T23:24:36.118Z,65.10
2017-06-10T23:27:03.716Z,65.20
2017-06-10T23:29:31.356Z,65.30
2017-06-10T23:31:59.012Z,65.50
2017-06-10T23:34:26.600Z,65.50
2017-06-10T23:36:54.147Z,65.60
2017-06-10T23:39:22.545Z,65.90
2017-06-10T23:41:50.146Z,65.90
2017-06-10T23:44:17.750Z,66.00
2017-06-10T23:46:46.169Z,66.30
2017-06-10T23:49:13.826Z,66.20
2017-06-10T23:51:41.419Z,66.30
2017-06-10T23:54:09.014Z,66.30
2017-06-10T23:56:38.742Z,66.50
2017-06-10T23:59:06.342Z,66.40
